METAR Data
IDs: Format: Raw Decoded Include TAF

Data at: 1740 UTC 31 Jul 2021

EGNJ 311720Z AUTO 27011KT 240V300 9999 FEW029/// BKN046/// 21/13 Q1008